createdAt,value
2023-04-18T00:02:03.328Z,5.47
2023-04-18T00:04:35.172Z,1.67
2023-04-18T00:07:05.638Z,1.42
2023-04-18T00:09:35.501Z,3.22
2023-04-18T00:12:06.138Z,3.80
2023-04-18T00:14:39.122Z,9.95
2023-04-18T00:17:12.217Z,2.10
2023-04-18T00:19:44.390Z,3.00
2023-04-18T00:22:15.625Z,2.97
2023-04-18T00:24:45.692Z,2.38
2023-04-18T00:27:19.678Z,6.03
2023-04-18T00:29:50.856Z,4.55
2023-04-18T00:32:21.045Z,3.70
2023-04-18T00:34:51.141Z,1.95
2023-04-18T00:37:22.074Z,3.55
2023-04-18T00:39:54.966Z,3.38
2023-04-18T00:42:27.221Z,1.92
2023-04-18T00:44:57.288Z,3.95
2023-04-18T00:47:27.537Z,2.33
2023-04-18T00:49:58.379Z,13.45
2023-04-18T00:52:29.971Z,3.60
2023-04-18T00:55:00.160Z,6.53
2023-04-18T00:57:32.134Z,3.72
2023-04-18T01:00:11.571Z,5.55
2023-04-18T01:02:42.867Z,2.58
2023-04-18T01:05:13.139Z,4.78
2023-04-18T01:07:43.387Z,1.10
2023-04-18T01:10:13.496Z,1.55
2023-04-18T01:13:17.154Z,6.53
2023-04-18T01:15:49.372Z,2.08
2023-04-18T01:18:20.331Z,7.32
2023-04-18T01:20:54.456Z,1.80
2023-04-18T01:23:24.678Z,3.10
2023-04-18T01:25:54.749Z,5.10
2023-04-18T01:28:24.665Z,9.35
2023-04-18T01:30:55.609Z,2.83
2023-04-18T01:33:26.335Z,0.98
2023-04-18T01:35:56.390Z,0.80
2023-04-18T01:38:26.609Z,1.10
2023-04-18T01:40:56.840Z,1.23
2023-04-18T01:45:56.260Z,2.42
2023-04-18T01:48:26.610Z,1.58
2023-04-18T01:53:27.063Z,5.72
2023-04-18T01:55:58.799Z,2.28
2023-04-18T01:58:29.193Z,8.30
2023-04-18T02:00:59.519Z,3.10
2023-04-18T02:03:30.452Z,10.20
2023-04-18T02:06:03.063Z,4.57
2023-04-18T02:08:36.616Z,2.85
2023-04-18T02:11:09.619Z,9.38
2023-04-18T02:13:39.861Z,7.43
2023-04-18T02:16:18.889Z,8.30
2023-04-18T02:18:49.063Z,5.03
2023-04-18T02:21:19.122Z,4.03
2023-04-18T02:23:52.290Z,2.58
2023-04-18T02:26:24.935Z,2.47
2023-04-18T02:31:24.576Z,2.53
2023-04-18T02:33:54.699Z,2.33
2023-04-18T02:36:24.677Z,7.45
2023-04-18T02:38:54.564Z,2.10
2023-04-18T02:41:24.691Z,2.17
2023-04-18T02:43:57.148Z,3.45
2023-04-18T02:46:27.551Z,0.90
2023-04-18T02:48:57.525Z,2.50
2023-04-18T02:51:27.974Z,3.78
2023-04-18T02:54:00.583Z,1.10
2023-04-18T02:56:41.194Z,3.85
2023-04-18T02:59:20.378Z,1.33
2023-04-18T03:02:02.631Z,8.80
2023-04-18T03:04:33.899Z,1.95
2023-04-18T03:07:07.145Z,3.90
2023-04-18T03:09:39.884Z,4.43
2023-04-18T03:12:19.264Z,1.90
2023-04-18T03:14:49.986Z,1.10
2023-04-18T03:19:51.522Z,2.88
2023-04-18T03:22:23.237Z,2.17
2023-04-18T03:24:58.995Z,3.85
2023-04-18T03:27:44.730Z,1.83
2023-04-18T03:30:19.311Z,3.00
2023-04-18T03:32:57.135Z,1.92
2023-04-18T03:35:27.297Z,12.80
2023-04-18T03:37:57.829Z,3.35
2023-04-18T03:40:31.812Z,6.15
2023-04-18T03:43:09.213Z,1.75
2023-04-18T03:45:39.565Z,4.25
2023-04-18T03:48:09.608Z,4.28
2023-04-18T03:50:44.341Z,6.82
2023-04-18T03:53:15.623Z,2.45
2023-04-18T03:55:46.309Z,8.13
2023-04-18T03:58:24.583Z,3.15
2023-04-18T04:00:55.536Z,8.60
2023-04-18T04:03:26.191Z,5.57
2023-04-18T04:05:57.133Z,5.03
2023-04-18T04:08:28.245Z,2.85
2023-04-18T04:10:58.840Z,4.90
2023-04-18T04:13:29.383Z,5.07
2023-04-18T04:16:00.267Z,4.43
2023-04-18T04:18:33.375Z,4.10
2023-04-18T04:21:05.443Z,5.95
2023-04-18T04:23:53.595Z,7.55
2023-04-18T04:26:35.699Z,7.70
2023-04-18T04:29:12.131Z,8.68
2023-04-18T04:31:44.344Z,14.50
2023-04-18T04:34:15.647Z,4.57
2023-04-18T04:36:46.057Z,9.85
2023-04-18T04:39:19.783Z,7.47
2023-04-18T04:42:10.859Z,8.13
2023-04-18T04:44:56.331Z,7.85
2023-04-18T04:49:57.237Z,5.78
2023-04-18T04:52:27.680Z,9.02
2023-04-18T04:54:57.468Z,7.53
2023-04-18T04:57:28.794Z,5.28
2023-04-18T04:59:58.858Z,5.57
2023-04-18T05:02:31.981Z,12.63
2023-04-18T05:05:02.177Z,6.40
2023-04-18T05:07:32.946Z,6.28
2023-04-18T05:12:32.549Z,2.92
2023-04-18T05:15:02.549Z,5.78
2023-04-18T05:17:32.390Z,3.47
2023-04-18T05:20:02.484Z,1.60
2023-04-18T05:22:32.579Z,4.78
2023-04-18T05:25:02.654Z,1.98
2023-04-18T05:27:32.661Z,6.70
2023-04-18T05:30:02.440Z,2.10
2023-04-18T05:32:32.665Z,7.13
2023-04-18T05:35:02.540Z,3.42
2023-04-18T05:37:32.663Z,3.10
2023-04-18T05:40:02.588Z,4.15
2023-04-18T05:42:32.723Z,7.10
2023-04-18T05:45:02.865Z,16.48
2023-04-18T05:47:34.705Z,5.30
2023-04-18T05:50:04.964Z,2.83
2023-04-18T05:52:35.226Z,3.58
2023-04-18T05:55:05.485Z,2.65
2023-04-18T05:57:36.026Z,9.43
2023-04-18T06:00:12.491Z,4.97
2023-04-18T06:02:42.624Z,4.55
2023-04-18T06:05:14.145Z,7.57
2023-04-18T06:07:44.742Z,3.33
2023-04-18T06:12:44.810Z,1.90
2023-04-18T06:17:44.145Z,5.25
2023-04-18T06:20:14.464Z,5.53
2023-04-18T06:22:44.910Z,5.35
2023-04-18T06:25:15.009Z,9.07
2023-04-18T06:27:45.014Z,6.45
2023-04-18T06:30:16.204Z,2.58
2023-04-18T06:32:46.636Z,3.15
2023-04-18T06:37:46.254Z,7.80
2023-04-18T06:40:16.320Z,3.25
2023-04-18T06:42:46.511Z,9.85
2023-04-18T06:45:16.534Z,7.32
2023-04-18T06:47:47.117Z,12.60
2023-04-18T06:52:47.085Z,21.35
2023-04-18T06:55:17.252Z,18.88
2023-04-18T06:57:47.768Z,20.33
2023-04-18T07:02:48.048Z,21.35
2023-04-18T07:05:18.228Z,16.83
2023-04-18T07:07:48.359Z,13.07
2023-04-18T07:10:18.502Z,11.07
2023-04-18T07:12:48.759Z,17.75
2023-04-18T07:15:18.868Z,10.50
2023-04-18T07:17:48.918Z,8.85
2023-04-18T07:20:18.954Z,7.70
2023-04-18T07:22:50.339Z,13.00
2023-04-18T07:25:20.608Z,17.20
2023-04-18T07:27:51.747Z,15.57
2023-04-18T07:30:21.851Z,18.67
2023-04-18T07:32:52.558Z,14.23
2023-04-18T07:37:54.081Z,14.98
2023-04-18T07:40:24.306Z,18.25
2023-04-18T07:42:55.216Z,15.57
2023-04-18T07:45:25.362Z,16.92
2023-04-18T07:47:55.482Z,20.83
2023-04-18T07:50:25.992Z,13.52
2023-04-18T07:52:56.815Z,14.90
2023-04-18T07:55:26.974Z,11.05
2023-04-18T07:57:57.057Z,8.50
2023-04-18T08:00:27.985Z,14.98
2023-04-18T08:02:59.872Z,8.73
2023-04-18T08:05:30.081Z,36.38
2023-04-18T08:08:00.258Z,35.00
2023-04-18T08:10:30.467Z,27.60
2023-04-18T08:13:02.071Z,31.00
2023-04-18T08:18:04.102Z,13.43
2023-04-18T08:20:35.482Z,21.65
2023-04-18T08:23:08.528Z,14.95
2023-04-18T08:25:39.140Z,38.80
2023-04-18T08:28:09.784Z,14.27
2023-04-18T08:30:40.021Z,14.57
2023-04-18T08:33:10.175Z,15.30
2023-04-18T08:35:40.114Z,6.25
2023-04-18T08:38:10.142Z,7.25
2023-04-18T08:40:40.422Z,7.65
2023-04-18T08:43:10.841Z,8.57
2023-04-18T08:45:41.840Z,7.43
2023-04-18T08:48:16.337Z,6.93
2023-04-18T08:50:47.249Z,6.47
2023-04-18T08:53:37.266Z,5.35
2023-04-18T08:56:11.600Z,4.72
2023-04-18T08:58:41.930Z,7.38
2023-04-18T09:01:12.394Z,6.45
2023-04-18T09:03:45.148Z,9.43
2023-04-18T09:06:20.101Z,4.78
2023-04-18T09:09:13.264Z,7.45
2023-04-18T09:11:43.623Z,8.85
2023-04-18T09:14:27.040Z,16.80
2023-04-18T09:16:57.460Z,11.60
2023-04-18T09:22:02.122Z,21.63
2023-04-18T09:24:33.560Z,19.88
2023-04-18T09:27:05.260Z,19.08
2023-04-18T09:29:47.496Z,18.48
2023-04-18T09:32:26.263Z,21.35
2023-04-18T09:35:04.363Z,17.65
2023-04-18T09:37:34.825Z,27.27
2023-04-18T09:40:19.656Z,20.35
2023-04-18T09:42:50.022Z,16.38
2023-04-18T09:45:20.212Z,17.17
2023-04-18T09:47:50.574Z,16.40
2023-04-18T09:50:21.933Z,21.60
2023-04-18T09:52:52.025Z,15.65
2023-04-18T09:55:22.330Z,37.25
2023-04-18T09:57:54.740Z,11.77
2023-04-18T10:00:28.631Z,9.45
2023-04-18T10:03:11.330Z,8.45
2023-04-18T10:08:14.263Z,11.18
2023-04-18T10:10:45.589Z,21.35
2023-04-18T10:13:16.178Z,14.20
2023-04-18T10:15:46.335Z,9.30
2023-04-18T10:18:20.294Z,11.55
2023-04-18T10:20:50.379Z,10.82
2023-04-18T10:23:41.760Z,16.65
2023-04-18T10:26:12.939Z,9.45
2023-04-18T10:28:59.997Z,12.57
2023-04-18T10:31:31.112Z,14.95
2023-04-18T10:34:05.758Z,7.93
2023-04-18T10:36:37.153Z,10.95
2023-04-18T10:39:24.549Z,17.50
2023-04-18T10:41:54.950Z,16.38
2023-04-18T10:44:25.289Z,18.33
2023-04-18T10:46:55.321Z,14.63
2023-04-18T10:49:32.542Z,22.33
2023-04-18T10:52:05.571Z,20.92
2023-04-18T10:54:53.812Z,20.42
2023-04-18T10:57:24.017Z,10.35
2023-04-18T10:59:55.884Z,11.38
2023-04-18T11:02:30.846Z,14.70
2023-04-18T11:05:03.080Z,13.50
2023-04-18T11:07:41.243Z,14.23
2023-04-18T11:10:11.801Z,14.88
2023-04-18T11:12:43.162Z,6.80
2023-04-18T11:15:13.844Z,7.45
2023-04-18T11:17:43.890Z,4.90
2023-04-18T11:20:16.216Z,9.52
2023-04-18T11:22:48.653Z,5.28
2023-04-18T11:25:20.317Z,10.00
2023-04-18T11:27:56.312Z,5.20
2023-04-18T11:30:26.656Z,8.90
2023-04-18T11:32:57.144Z,5.75
2023-04-18T11:37:57.268Z,7.35
2023-04-18T11:42:57.085Z,6.85
2023-04-18T11:45:27.543Z,5.93
2023-04-18T11:50:29.638Z,5.38
2023-04-18T11:52:59.654Z,12.15
2023-04-18T11:55:29.611Z,3.58
2023-04-18T11:58:01.244Z,2.95
2023-04-18T12:00:38.800Z,3.50
2023-04-18T12:03:19.977Z,5.70
2023-04-18T12:05:50.790Z,5.47
2023-04-18T12:08:22.470Z,4.47
2023-04-18T12:10:53.934Z,12.85
2023-04-18T12:13:32.788Z,4.82
2023-04-18T12:16:04.146Z,6.78
2023-04-18T12:18:34.214Z,5.40
2023-04-18T12:21:07.026Z,4.22
2023-04-18T12:23:43.507Z,3.92
2023-04-18T12:26:24.057Z,4.60
2023-04-18T12:28:57.002Z,3.97
2023-04-18T12:31:29.749Z,8.55
2023-04-18T12:34:01.154Z,7.75
2023-04-18T12:36:32.046Z,7.55
2023-04-18T12:39:02.182Z,5.97
2023-04-18T12:41:32.330Z,9.82
2023-04-18T12:44:02.385Z,4.88
2023-04-18T12:46:32.938Z,8.70
2023-04-18T12:49:03.029Z,3.25
2023-04-18T12:51:33.133Z,6.38
2023-04-18T12:54:03.252Z,2.13
2023-04-18T12:56:33.329Z,3.40
2023-04-18T12:59:03.369Z,14.88
2023-04-18T13:01:33.564Z,3.50
2023-04-18T13:04:11.862Z,3.40
2023-04-18T13:06:43.311Z,6.88
2023-04-18T13:09:13.730Z,8.50
2023-04-18T13:11:44.050Z,7.45
2023-04-18T13:14:14.226Z,5.22
2023-04-18T13:16:44.441Z,3.70
2023-04-18T13:19:14.729Z,8.63
2023-04-18T13:24:14.284Z,4.53
2023-04-18T13:26:44.350Z,7.60
2023-04-18T13:29:14.534Z,6.15
2023-04-18T13:34:14.060Z,6.30
2023-04-18T13:36:45.089Z,4.03
2023-04-18T13:39:16.639Z,7.38
2023-04-18T13:41:46.906Z,6.88
2023-04-18T13:44:16.865Z,9.02
2023-04-18T13:46:46.930Z,7.68
2023-04-18T13:49:16.975Z,5.75
2023-04-18T13:51:47.904Z,3.65
2023-04-18T13:54:18.094Z,4.82
2023-04-18T13:56:48.159Z,4.68
2023-04-18T13:59:18.135Z,7.72
2023-04-18T14:01:48.496Z,8.48
2023-04-18T14:04:19.495Z,10.57
2023-04-18T14:06:50.412Z,7.10
2023-04-18T14:09:20.506Z,4.78
2023-04-18T14:11:52.131Z,4.25
2023-04-18T14:14:24.469Z,5.88
2023-04-18T14:16:55.152Z,7.63
2023-04-18T14:19:25.293Z,7.15
2023-04-18T14:21:55.407Z,5.00
2023-04-18T14:24:25.421Z,3.17
2023-04-18T14:26:56.006Z,3.90
2023-04-18T14:29:26.044Z,2.63
2023-04-18T14:31:56.128Z,4.18
2023-04-18T14:34:26.286Z,9.07
2023-04-18T14:36:57.404Z,2.30
2023-04-18T14:39:27.484Z,4.70
2023-04-18T14:41:58.792Z,3.17
2023-04-18T14:44:28.933Z,7.28
2023-04-18T14:46:59.045Z,1.70
2023-04-18T14:49:29.172Z,2.20
2023-04-18T14:51:59.267Z,1.63
2023-04-18T14:54:30.472Z,3.05
2023-04-18T14:57:02.643Z,5.65
2023-04-18T14:59:32.677Z,0.75
2023-04-18T15:02:02.658Z,4.05
2023-04-18T15:07:39.442Z,1.30
2023-04-18T15:10:09.958Z,4.07
2023-04-18T15:12:40.779Z,3.25
2023-04-18T15:15:11.298Z,1.60
2023-04-18T15:17:41.777Z,1.55
2023-04-18T15:20:12.169Z,4.20
2023-04-18T15:22:42.225Z,11.20
2023-04-18T15:25:13.534Z,2.45
2023-04-18T15:27:44.270Z,1.88
2023-04-18T15:30:14.824Z,1.13
2023-04-18T15:32:45.380Z,0.80
2023-04-18T15:35:15.595Z,1.70
2023-04-18T15:37:45.732Z,1.90
2023-04-18T15:40:17.333Z,1.77
2023-04-18T15:42:47.693Z,2.03
2023-04-18T15:45:17.807Z,0.60
2023-04-18T15:47:47.795Z,0.80
2023-04-18T15:50:17.975Z,1.80
2023-04-18T15:55:17.466Z,2.88
2023-04-18T15:57:48.019Z,1.40
2023-04-18T16:00:21.836Z,0.40
2023-04-18T16:02:51.903Z,0.95
2023-04-18T16:07:51.628Z,3.15
2023-04-18T16:10:21.699Z,0.40
2023-04-18T16:12:51.530Z,1.58
2023-04-18T16:17:51.017Z,6.00
2023-04-18T16:22:50.536Z,1.60
2023-04-18T16:25:21.892Z,3.05
2023-04-18T16:27:52.083Z,0.40
2023-04-18T16:30:22.946Z,0.47
2023-04-18T16:32:53.354Z,1.70
2023-04-18T16:35:23.584Z,0.25
2023-04-18T16:37:53.679Z,2.25
2023-04-18T16:40:23.521Z,1.23
2023-04-18T16:42:53.918Z,2.08
2023-04-18T16:45:23.856Z,1.60
2023-04-18T16:47:53.662Z,4.78
2023-04-18T16:50:24.053Z,0.63
2023-04-18T16:52:54.079Z,4.80
2023-04-18T16:57:53.444Z,0.35
2023-04-18T17:02:53.157Z,1.63
2023-04-18T17:05:24.908Z,0.75
2023-04-18T17:07:57.368Z,5.65
2023-04-18T17:10:27.694Z,1.23
2023-04-18T17:12:57.906Z,2.22
2023-04-18T17:15:28.562Z,0.75
2023-04-18T17:18:01.332Z,0.50
2023-04-18T17:20:31.592Z,1.27
2023-04-18T17:23:01.562Z,0.60
2023-04-18T17:25:31.666Z,1.52
2023-04-18T17:28:03.355Z,0.70
2023-04-18T17:30:33.734Z,1.92
2023-04-18T17:33:03.521Z,1.52
2023-04-18T17:35:33.674Z,1.02
2023-04-18T17:38:03.647Z,0.88
2023-04-18T17:40:33.690Z,6.10
2023-04-18T17:43:03.508Z,2.55
2023-04-18T17:45:33.673Z,0.93
2023-04-18T17:48:04.317Z,0.43
2023-04-18T17:50:37.956Z,0.57
2023-04-18T17:53:08.113Z,1.02
2023-04-18T17:58:07.616Z,2.40
2023-04-18T18:00:37.648Z,2.65
2023-04-18T18:03:09.907Z,0.73
2023-04-18T18:05:40.723Z,1.10
2023-04-18T18:08:10.664Z,0.60
2023-04-18T18:10:40.937Z,1.63
2023-04-18T18:13:11.146Z,3.95
2023-04-18T18:15:41.210Z,8.35
2023-04-18T18:18:11.305Z,1.85
2023-04-18T18:20:44.364Z,6.13
2023-04-18T18:23:14.433Z,12.27
2023-04-18T18:25:44.308Z,1.20
2023-04-18T18:28:19.805Z,5.68
2023-04-18T18:30:49.942Z,6.53
2023-04-18T18:33:20.132Z,0.82
2023-04-18T18:35:50.384Z,1.25
2023-04-18T18:38:20.472Z,5.70
2023-04-18T18:40:50.533Z,1.10
2023-04-18T18:43:20.515Z,1.10
2023-04-18T18:45:50.386Z,2.17
2023-04-18T18:48:21.596Z,4.85
2023-04-18T18:50:52.629Z,4.35
2023-04-18T18:53:22.573Z,1.02
2023-04-18T18:55:52.454Z,10.32
2023-04-18T18:58:22.715Z,1.70
2023-04-18T19:00:52.986Z,6.03
2023-04-18T19:03:23.871Z,1.75
2023-04-18T19:05:53.996Z,1.55
2023-04-18T19:08:24.225Z,0.95
2023-04-18T19:10:54.555Z,2.97
2023-04-18T19:13:25.248Z,2.63
2023-04-18T19:15:55.316Z,1.58
2023-04-18T19:18:25.166Z,0.60
2023-04-18T19:23:26.337Z,2.70
2023-04-18T19:25:56.482Z,1.35
2023-04-18T19:28:27.213Z,3.80
2023-04-18T19:30:57.395Z,1.15
2023-04-18T19:35:57.748Z,8.30
2023-04-18T19:38:27.661Z,9.32
2023-04-18T19:43:26.933Z,3.45
2023-04-18T19:45:57.120Z,6.07
2023-04-18T19:48:27.280Z,2.85
2023-04-18T19:50:58.465Z,1.23
2023-04-18T19:53:28.719Z,1.83
2023-04-18T19:55:59.030Z,8.05
2023-04-18T19:58:47.748Z,1.95
2023-04-18T20:01:20.023Z,6.03
2023-04-18T20:03:50.397Z,6.22
2023-04-18T20:06:21.251Z,1.63
2023-04-18T20:08:51.267Z,6.85
2023-04-18T20:11:25.367Z,5.22
2023-04-18T20:13:57.065Z,9.40
2023-04-18T20:16:27.190Z,0.93
2023-04-18T20:21:28.378Z,6.57
2023-04-18T20:24:00.377Z,4.90
2023-04-18T20:26:30.584Z,0.40
2023-04-18T20:31:29.844Z,2.85
2023-04-18T20:33:59.918Z,3.15
2023-04-18T20:36:32.293Z,6.38
2023-04-18T20:39:04.889Z,2.47
2023-04-18T20:41:35.843Z,15.70
2023-04-18T20:44:11.153Z,4.82
2023-04-18T20:46:42.122Z,1.95
2023-04-18T20:49:12.855Z,3.38
2023-04-18T20:51:43.017Z,6.25
2023-04-18T20:54:13.499Z,0.85
2023-04-18T20:56:43.761Z,3.10
2023-04-18T20:59:13.549Z,3.78
2023-04-18T21:01:43.701Z,1.33
2023-04-18T21:04:14.100Z,2.92
2023-04-18T21:06:44.621Z,4.88
2023-04-18T21:09:14.845Z,4.68
2023-04-18T21:11:45.292Z,2.28
2023-04-18T21:14:15.965Z,9.00
2023-04-18T21:16:46.262Z,7.30
2023-04-18T21:19:16.354Z,6.18
2023-04-18T21:21:46.502Z,4.88
2023-04-18T21:24:17.153Z,1.52
2023-04-18T21:26:47.239Z,6.25
2023-04-18T21:29:17.268Z,4.75
2023-04-18T21:31:48.438Z,3.88
2023-04-18T21:34:20.008Z,3.28
2023-04-18T21:36:50.122Z,2.15
2023-04-18T21:39:20.138Z,8.18
2023-04-18T21:41:50.125Z,2.58
2023-04-18T21:44:20.232Z,6.65
2023-04-18T21:46:50.280Z,6.65
2023-04-18T21:49:20.510Z,6.72
2023-04-18T21:54:23.101Z,3.17
2023-04-18T21:56:53.101Z,7.20
2023-04-18T21:59:23.163Z,4.38
2023-04-18T22:01:53.204Z,7.47
2023-04-18T22:04:26.964Z,3.30
2023-04-18T22:06:57.921Z,14.60
2023-04-18T22:09:28.041Z,18.27
2023-04-18T22:11:58.006Z,6.00
2023-04-18T22:14:29.631Z,1.33
2023-04-18T22:17:02.854Z,4.07
2023-04-18T22:19:32.885Z,2.25
2023-04-18T22:22:02.862Z,2.42
2023-04-18T22:24:32.852Z,3.08
2023-04-18T22:27:03.885Z,1.65
2023-04-18T22:29:33.888Z,2.35
2023-04-18T22:32:03.898Z,5.90
2023-04-18T22:34:33.934Z,1.98
2023-04-18T22:37:03.977Z,5.60
2023-04-18T22:39:33.981Z,6.05
2023-04-18T22:42:03.932Z,11.75
2023-04-18T22:44:33.981Z,6.72
2023-04-18T22:47:04.383Z,4.28
2023-04-18T22:49:34.458Z,6.43
2023-04-18T22:52:04.676Z,1.52
2023-04-18T23:02:21.984Z,3.78
2023-04-18T23:04:52.290Z,1.77
2023-04-18T23:07:22.188Z,4.53
2023-04-18T23:09:52.207Z,2.05
2023-04-18T23:12:22.295Z,1.75
2023-04-18T23:14:52.382Z,6.22
2023-04-18T23:17:23.281Z,3.83
2023-04-18T23:19:53.261Z,3.70
2023-04-18T23:22:25.183Z,6.65
2023-04-18T23:24:55.182Z,5.25
2023-04-18T23:27:25.297Z,4.47
2023-04-18T23:29:58.598Z,2.60
2023-04-18T23:32:29.955Z,3.92
2023-04-18T23:37:29.050Z,1.80
2023-04-18T23:40:00.701Z,2.33
2023-04-18T23:42:30.730Z,9.00
2023-04-18T23:45:00.593Z,1.92
2023-04-18T23:47:30.719Z,7.47
2023-04-18T23:50:00.606Z,6.43
2023-04-18T23:52:30.370Z,3.13
2023-04-18T23:55:03.810Z,6.38
2023-04-18T23:57:34.957Z,6.25
